sensor_id;sensor_type;location;lat;lon;timestamp;P1;durP1;ratioP1;P2;durP2;ratioP2
8419;SDS011;4247;48.550;8.822;2024-01-07T00:01:07;6.50;;;4.93;;
8419;SDS011;4247;48.550;8.822;2024-01-07T00:03:34;5.27;;;4.43;;
8419;SDS011;4247;48.550;8.822;2024-01-07T00:06:02;8.17;;;5.00;;
8419;SDS011;4247;48.550;8.822;2024-01-07T00:08:30;11.33;;;5.23;;
8419;SDS011;4247;48.550;8.822;2024-01-07T00:10:56;7.30;;;4.60;;
8419;SDS011;4247;48.550;8.822;2024-01-07T00:13:23;7.30;;;4.27;;
8419;SDS011;4247;48.550;8.822;2024-01-07T00:15:49;5.37;;;3.87;;
8419;SDS011;4247;48.550;8.822;2024-01-07T00:18:18;5.93;;;4.07;;
8419;SDS011;4247;48.550;8.822;2024-01-07T00:20:45;5.57;;;4.30;;
8419;SDS011;4247;48.550;8.822;2024-01-07T00:23:13;9.10;;;4.23;;
8419;SDS011;4247;48.550;8.822;2024-01-07T00:25:40;6.67;;;4.00;;
8419;SDS011;4247;48.550;8.822;2024-01-07T00:28:06;7.33;;;4.13;;
8419;SDS011;4247;48.550;8.822;2024-01-07T00:30:33;6.93;;;4.20;;
8419;SDS011;4247;48.550;8.822;2024-01-07T00:33:00;9.37;;;5.70;;
8419;SDS011;4247;48.550;8.822;2024-01-07T00:35:27;7.33;;;4.53;;
8419;SDS011;4247;48.550;8.822;2024-01-07T00:37:53;7.47;;;4.33;;
8419;SDS011;4247;48.550;8.822;2024-01-07T00:40:22;7.70;;;5.43;;
8419;SDS011;4247;48.550;8.822;2024-01-07T00:42:49;9.37;;;5.17;;
8419;SDS011;4247;48.550;8.822;2024-01-07T00:45:16;8.60;;;5.30;;
8419;SDS011;4247;48.550;8.822;2024-01-07T00:47:43;6.60;;;5.10;;
8419;SDS011;4247;48.550;8.822;2024-01-07T00:50:10;5.83;;;4.33;;
8419;SDS011;4247;48.550;8.822;2024-01-07T00:52:37;7.07;;;4.67;;
8419;SDS011;4247;48.550;8.822;2024-01-07T00:55:04;5.20;;;4.20;;
8419;SDS011;4247;48.550;8.822;2024-01-07T00:57:33;7.00;;;4.63;;
8419;SDS011;4247;48.550;8.822;2024-01-07T01:00:00;8.07;;;5.50;;
8419;SDS011;4247;48.550;8.822;2024-01-07T01:02:31;7.23;;;4.77;;
8419;SDS011;4247;48.550;8.822;2024-01-07T01:04:58;9.10;;;5.00;;
8419;SDS011;4247;48.550;8.822;2024-01-07T01:07:25;9.07;;;5.53;;
8419;SDS011;4247;48.550;8.822;2024-01-07T01:09:51;8.33;;;5.80;;
8419;SDS011;4247;48.550;8.822;2024-01-07T01:12:18;7.97;;;5.93;;
8419;SDS011;4247;48.550;8.822;2024-01-07T01:14:46;7.73;;;4.87;;
8419;SDS011;4247;48.550;8.822;2024-01-07T01:17:12;6.80;;;4.77;;
8419;SDS011;4247;48.550;8.822;2024-01-07T01:19:39;6.10;;;5.20;;
8419;SDS011;4247;48.550;8.822;2024-01-07T01:22:06;5.43;;;3.97;;
8419;SDS011;4247;48.550;8.822;2024-01-07T01:24:33;6.73;;;4.33;;
8419;SDS011;4247;48.550;8.822;2024-01-07T01:26:59;5.63;;;3.47;;
8419;SDS011;4247;48.550;8.822;2024-01-07T01:29:26;5.77;;;3.40;;
8419;SDS011;4247;48.550;8.822;2024-01-07T01:31:54;7.07;;;4.10;;
8419;SDS011;4247;48.550;8.822;2024-01-07T01:34:21;5.37;;;3.13;;
8419;SDS011;4247;48.550;8.822;2024-01-07T01:36:47;4.80;;;3.07;;
8419;SDS011;4247;48.550;8.822;2024-01-07T01:39:14;5.37;;;3.77;;
8419;SDS011;4247;48.550;8.822;2024-01-07T01:41:41;4.47;;;3.23;;
8419;SDS011;4247;48.550;8.822;2024-01-07T01:44:08;6.13;;;4.47;;
8419;SDS011;4247;48.550;8.822;2024-01-07T01:46:34;5.03;;;3.27;;
8419;SDS011;4247;48.550;8.822;2024-01-07T01:49:03;4.53;;;3.30;;
8419;SDS011;4247;48.550;8.822;2024-01-07T01:51:30;3.80;;;3.03;;
8419;SDS011;4247;48.550;8.822;2024-01-07T01:53:57;8.13;;;3.90;;
8419;SDS011;4247;48.550;8.822;2024-01-07T01:56:25;5.03;;;3.00;;
8419;SDS011;4247;48.550;8.822;2024-01-07T01:58:54;4.30;;;3.13;;
8419;SDS011;4247;48.550;8.822;2024-01-07T02:01:21;4.37;;;3.03;;
8419;SDS011;4247;48.550;8.822;2024-01-07T02:03:48;4.17;;;2.60;;
8419;SDS011;4247;48.550;8.822;2024-01-07T02:06:18;4.87;;;3.20;;
8419;SDS011;4247;48.550;8.822;2024-01-07T02:08:45;5.70;;;3.03;;
8419;SDS011;4247;48.550;8.822;2024-01-07T02:11:15;4.30;;;2.70;;
8419;SDS011;4247;48.550;8.822;2024-01-07T02:13:43;4.57;;;2.80;;
8419;SDS011;4247;48.550;8.822;2024-01-07T02:16:09;5.33;;;2.90;;
8419;SDS011;4247;48.550;8.822;2024-01-07T02:18:37;4.03;;;3.07;;
8419;SDS011;4247;48.550;8.822;2024-01-07T02:21:06;4.97;;;3.50;;
8419;SDS011;4247;48.550;8.822;2024-01-07T02:23:34;4.07;;;2.43;;
8419;SDS011;4247;48.550;8.822;2024-01-07T02:26:03;5.00;;;3.33;;
8419;SDS011;4247;48.550;8.822;2024-01-07T02:28:30;3.63;;;2.90;;
8419;SDS011;4247;48.550;8.822;2024-01-07T02:30:57;4.70;;;3.67;;
8419;SDS011;4247;48.550;8.822;2024-01-07T02:33:24;6.47;;;3.17;;
8419;SDS011;4247;48.550;8.822;2024-01-07T02:35:52;5.77;;;3.20;;
8419;SDS011;4247;48.550;8.822;2024-01-07T02:38:18;6.93;;;3.97;;
8419;SDS011;4247;48.550;8.822;2024-01-07T02:40:45;5.17;;;3.47;;
8419;SDS011;4247;48.550;8.822;2024-01-07T02:43:13;4.60;;;3.13;;
8419;SDS011;4247;48.550;8.822;2024-01-07T02:45:40;5.33;;;3.53;;
8419;SDS011;4247;48.550;8.822;2024-01-07T02:48:07;5.63;;;3.50;;
8419;SDS011;4247;48.550;8.822;2024-01-07T02:50:33;7.03;;;3.83;;
8419;SDS011;4247;48.550;8.822;2024-01-07T02:53:00;6.07;;;3.47;;
8419;SDS011;4247;48.550;8.822;2024-01-07T02:55:27;7.27;;;3.73;;
8419;SDS011;4247;48.550;8.822;2024-01-07T02:57:53;8.73;;;3.90;;
8419;SDS011;4247;48.550;8.822;2024-01-07T03:00:21;8.97;;;4.03;;
8419;SDS011;4247;48.550;8.822;2024-01-07T03:02:48;6.03;;;3.73;;
8419;SDS011;4247;48.550;8.822;2024-01-07T03:05:15;10.57;;;3.80;;
8419;SDS011;4247;48.550;8.822;2024-01-07T03:07:41;7.37;;;3.60;;
8419;SDS011;4247;48.550;8.822;2024-01-07T03:10:08;4.03;;;3.07;;
8419;SDS011;4247;48.550;8.822;2024-01-07T03:12:35;5.20;;;3.30;;
8419;SDS011;4247;48.550;8.822;2024-01-07T03:15:02;5.43;;;3.20;;
8419;SDS011;4247;48.550;8.822;2024-01-07T03:17:30;6.23;;;3.37;;
8419;SDS011;4247;48.550;8.822;2024-01-07T03:19:57;5.80;;;3.40;;
8419;SDS011;4247;48.550;8.822;2024-01-07T03:22:24;8.67;;;4.00;;
8419;SDS011;4247;48.550;8.822;2024-01-07T03:24:50;6.63;;;4.07;;
8419;SDS011;4247;48.550;8.822;2024-01-07T03:27:17;7.77;;;3.97;;
8419;SDS011;4247;48.550;8.822;2024-01-07T03:29:44;4.53;;;3.17;;
8419;SDS011;4247;48.550;8.822;2024-01-07T03:32:10;5.37;;;3.60;;
8419;SDS011;4247;48.550;8.822;2024-01-07T03:34:39;6.80;;;3.17;;
8419;SDS011;4247;48.550;8.822;2024-01-07T03:37:06;6.63;;;3.37;;
8419;SDS011;4247;48.550;8.822;2024-01-07T03:39:32;5.83;;;4.50;;
8419;SDS011;4247;48.550;8.822;2024-01-07T03:41:59;6.30;;;3.70;;
8419;SDS011;4247;48.550;8.822;2024-01-07T03:44:26;5.37;;;3.80;;
8419;SDS011;4247;48.550;8.822;2024-01-07T03:46:52;8.30;;;4.93;;
8419;SDS011;4247;48.550;8.822;2024-01-07T03:49:19;8.17;;;4.73;;
8419;SDS011;4247;48.550;8.822;2024-01-07T03:51:47;7.07;;;4.33;;
8419;SDS011;4247;48.550;8.822;2024-01-07T03:54:14;8.77;;;4.13;;
8419;SDS011;4247;48.550;8.822;2024-01-07T03:56:40;5.70;;;4.07;;
8419;SDS011;4247;48.550;8.822;2024-01-07T03:59:07;6.80;;;4.50;;
8419;SDS011;4247;48.550;8.822;2024-01-07T04:01:34;7.40;;;4.37;;
8419;SDS011;4247;48.550;8.822;2024-01-07T04:04:00;8.93;;;5.27;;
8419;SDS011;4247;48.550;8.822;2024-01-07T04:06:27;10.57;;;5.17;;
8419;SDS011;4247;48.550;8.822;2024-01-07T04:08:55;8.97;;;5.30;;
8419;SDS011;4247;48.550;8.822;2024-01-07T04:11:22;9.60;;;5.73;;
8419;SDS011;4247;48.550;8.822;2024-01-07T04:13:49;11.97;;;6.77;;
8419;SDS011;4247;48.550;8.822;2024-01-07T04:16:16;11.30;;;5.50;;
8419;SDS011;4247;48.550;8.822;2024-01-07T04:18:43;8.30;;;4.87;;
8419;SDS011;4247;48.550;8.822;2024-01-07T04:21:10;9.67;;;5.23;;
8419;SDS011;4247;48.550;8.822;2024-01-07T04:23:37;11.00;;;5.10;;
8419;SDS011;4247;48.550;8.822;2024-01-07T04:26:06;12.33;;;5.63;;
8419;SDS011;4247;48.550;8.822;2024-01-07T04:28:33;9.57;;;4.87;;
8419;SDS011;4247;48.550;8.822;2024-01-07T04:31:00;9.33;;;4.90;;
8419;SDS011;4247;48.550;8.822;2024-01-07T04:33:26;11.57;;;6.37;;
8419;SDS011;4247;48.550;8.822;2024-01-07T04:35:53;8.67;;;5.43;;
8419;SDS011;4247;48.550;8.822;2024-01-07T04:38:23;9.83;;;6.03;;
8419;SDS011;4247;48.550;8.822;2024-01-07T04:40:49;6.60;;;4.83;;
8419;SDS011;4247;48.550;8.822;2024-01-07T04:43:17;11.20;;;5.40;;
8419;SDS011;4247;48.550;8.822;2024-01-07T04:45:44;8.33;;;4.53;;
8419;SDS011;4247;48.550;8.822;2024-01-07T04:48:11;12.73;;;5.83;;
8419;SDS011;4247;48.550;8.822;2024-01-07T04:50:38;8.93;;;5.53;;
8419;SDS011;4247;48.550;8.822;2024-01-07T04:53:05;7.10;;;4.97;;
8419;SDS011;4247;48.550;8.822;2024-01-07T04:55:32;11.17;;;6.30;;
8419;SDS011;4247;48.550;8.822;2024-01-07T04:57:59;11.70;;;5.30;;
8419;SDS011;4247;48.550;8.822;2024-01-07T05:00:27;11.40;;;5.30;;
8419;SDS011;4247;48.550;8.822;2024-01-07T05:02:54;12.20;;;5.97;;
8419;SDS011;4247;48.550;8.822;2024-01-07T05:05:21;9.83;;;5.27;;
8419;SDS011;4247;48.550;8.822;2024-01-07T05:07:47;8.77;;;5.20;;
8419;SDS011;4247;48.550;8.822;2024-01-07T05:10:14;9.87;;;5.83;;
8419;SDS011;4247;48.550;8.822;2024-01-07T05:12:41;11.43;;;5.93;;
8419;SDS011;4247;48.550;8.822;2024-01-07T05:15:08;10.40;;;5.43;;
8419;SDS011;4247;48.550;8.822;2024-01-07T05:17:36;10.27;;;5.57;;
8419;SDS011;4247;48.550;8.822;2024-01-07T05:20:03;8.93;;;5.20;;
8419;SDS011;4247;48.550;8.822;2024-01-07T05:22:31;8.23;;;5.87;;
8419;SDS011;4247;48.550;8.822;2024-01-07T05:24:58;10.70;;;5.90;;
8419;SDS011;4247;48.550;8.822;2024-01-07T05:27:25;8.13;;;5.50;;
8419;SDS011;4247;48.550;8.822;2024-01-07T05:29:51;9.63;;;6.27;;
8419;SDS011;4247;48.550;8.822;2024-01-07T05:32:20;12.23;;;6.57;;
8419;SDS011;4247;48.550;8.822;2024-01-07T05:34:48;11.53;;;6.93;;
8419;SDS011;4247;48.550;8.822;2024-01-07T05:37:15;9.20;;;6.10;;
8419;SDS011;4247;48.550;8.822;2024-01-07T05:39:42;11.77;;;7.10;;
8419;SDS011;4247;48.550;8.822;2024-01-07T05:42:08;11.03;;;7.37;;
8419;SDS011;4247;48.550;8.822;2024-01-07T05:44:35;12.87;;;6.93;;
8419;SDS011;4247;48.550;8.822;2024-01-07T05:47:02;10.93;;;6.30;;
8419;SDS011;4247;48.550;8.822;2024-01-07T05:49:29;9.23;;;6.13;;
8419;SDS011;4247;48.550;8.822;2024-01-07T05:51:57;11.00;;;6.60;;
8419;SDS011;4247;48.550;8.822;2024-01-07T05:54:24;10.00;;;6.80;;
8419;SDS011;4247;48.550;8.822;2024-01-07T05:56:51;9.77;;;6.67;;
8419;SDS011;4247;48.550;8.822;2024-01-07T05:59:18;12.57;;;5.67;;
8419;SDS011;4247;48.550;8.822;2024-01-07T06:01:45;8.80;;;6.00;;
8419;SDS011;4247;48.550;8.822;2024-01-07T06:04:11;8.23;;;5.90;;
8419;SDS011;4247;48.550;8.822;2024-01-07T06:06:38;8.57;;;5.83;;
8419;SDS011;4247;48.550;8.822;2024-01-07T06:09:06;9.37;;;5.80;;
8419;SDS011;4247;48.550;8.822;2024-01-07T06:11:33;7.77;;;4.60;;
8419;SDS011;4247;48.550;8.822;2024-01-07T06:13:59;6.37;;;4.70;;
8419;SDS011;4247;48.550;8.822;2024-01-07T06:16:26;8.13;;;6.10;;
8419;SDS011;4247;48.550;8.822;2024-01-07T06:18:53;10.23;;;5.60;;
8419;SDS011;4247;48.550;8.822;2024-01-07T06:21:19;6.20;;;4.67;;
8419;SDS011;4247;48.550;8.822;2024-01-07T06:23:46;6.33;;;5.00;;
8419;SDS011;4247;48.550;8.822;2024-01-07T06:26:14;7.27;;;4.87;;
8419;SDS011;4247;48.550;8.822;2024-01-07T06:28:41;7.77;;;5.87;;
8419;SDS011;4247;48.550;8.822;2024-01-07T06:31:08;7.87;;;4.23;;
8419;SDS011;4247;48.550;8.822;2024-01-07T06:33:34;6.03;;;5.07;;
8419;SDS011;4247;48.550;8.822;2024-01-07T06:36:01;8.63;;;5.13;;
8419;SDS011;4247;48.550;8.822;2024-01-07T06:38:28;6.67;;;4.83;;
8419;SDS011;4247;48.550;8.822;2024-01-07T06:40:54;8.40;;;4.77;;
8419;SDS011;4247;48.550;8.822;2024-01-07T06:43:27;8.57;;;6.13;;
8419;SDS011;4247;48.550;8.822;2024-01-07T06:45:54;4.63;;;3.97;;
8419;SDS011;4247;48.550;8.822;2024-01-07T06:48:21;6.73;;;4.40;;
8419;SDS011;4247;48.550;8.822;2024-01-07T06:50:47;5.70;;;4.50;;
8419;SDS011;4247;48.550;8.822;2024-01-07T06:53:14;3.90;;;3.57;;
8419;SDS011;4247;48.550;8.822;2024-01-07T06:55:41;5.87;;;4.30;;
8419;SDS011;4247;48.550;8.822;2024-01-07T06:58:08;7.40;;;4.07;;
8419;SDS011;4247;48.550;8.822;2024-01-07T07:00:36;6.53;;;4.33;;
8419;SDS011;4247;48.550;8.822;2024-01-07T07:03:03;4.73;;;3.87;;
8419;SDS011;4247;48.550;8.822;2024-01-07T07:05:30;4.83;;;4.20;;
8419;SDS011;4247;48.550;8.822;2024-01-07T07:07:57;5.30;;;3.27;;
8419;SDS011;4247;48.550;8.822;2024-01-07T07:10:24;4.47;;;3.30;;
8419;SDS011;4247;48.550;8.822;2024-01-07T07:12:50;5.13;;;3.83;;
8419;SDS011;4247;48.550;8.822;2024-01-07T07:15:17;5.50;;;4.43;;
8419;SDS011;4247;48.550;8.822;2024-01-07T07:17:45;3.83;;;3.53;;
8419;SDS011;4247;48.550;8.822;2024-01-07T07:20:12;7.27;;;4.90;;
8419;SDS011;4247;48.550;8.822;2024-01-07T07:22:39;6.13;;;5.57;;
8419;SDS011;4247;48.550;8.822;2024-01-07T07:25:06;5.50;;;5.00;;
8419;SDS011;4247;48.550;8.822;2024-01-07T07:27:33;7.17;;;5.43;;
8419;SDS011;4247;48.550;8.822;2024-01-07T07:30:00;8.73;;;7.33;;
8419;SDS011;4247;48.550;8.822;2024-01-07T07:32:26;6.93;;;5.47;;
8419;SDS011;4247;48.550;8.822;2024-01-07T07:34:54;11.73;;;6.60;;
8419;SDS011;4247;48.550;8.822;2024-01-07T07:37:21;7.70;;;6.60;;
8419;SDS011;4247;48.550;8.822;2024-01-07T07:39:48;9.17;;;6.27;;
8419;SDS011;4247;48.550;8.822;2024-01-07T07:42:15;12.67;;;7.47;;
8419;SDS011;4247;48.550;8.822;2024-01-07T07:44:42;7.13;;;5.27;;
8419;SDS011;4247;48.550;8.822;2024-01-07T07:47:08;5.93;;;5.10;;
8419;SDS011;4247;48.550;8.822;2024-01-07T07:49:36;6.63;;;5.40;;
8419;SDS011;4247;48.550;8.822;2024-01-07T07:52:06;8.60;;;4.80;;
8419;SDS011;4247;48.550;8.822;2024-01-07T07:54:33;8.70;;;6.00;;
8419;SDS011;4247;48.550;8.822;2024-01-07T07:57:00;9.50;;;5.13;;
8419;SDS011;4247;48.550;8.822;2024-01-07T07:59:27;8.73;;;5.20;;
8419;SDS011;4247;48.550;8.822;2024-01-07T08:01:54;8.40;;;5.70;;
8419;SDS011;4247;48.550;8.822;2024-01-07T08:04:21;7.33;;;5.83;;
8419;SDS011;4247;48.550;8.822;2024-01-07T08:06:47;10.30;;;6.60;;
8419;SDS011;4247;48.550;8.822;2024-01-07T08:09:15;7.83;;;4.83;;
8419;SDS011;4247;48.550;8.822;2024-01-07T08:11:42;6.30;;;5.30;;
8419;SDS011;4247;48.550;8.822;2024-01-07T08:14:09;6.67;;;6.00;;
8419;SDS011;4247;48.550;8.822;2024-01-07T08:16:36;10.30;;;5.93;;
8419;SDS011;4247;48.550;8.822;2024-01-07T08:19:02;9.63;;;6.67;;
8419;SDS011;4247;48.550;8.822;2024-01-07T08:21:29;9.30;;;5.63;;
8419;SDS011;4247;48.550;8.822;2024-01-07T08:23:56;7.97;;;6.33;;
8419;SDS011;4247;48.550;8.822;2024-01-07T08:26:24;11.27;;;7.07;;
8419;SDS011;4247;48.550;8.822;2024-01-07T08:28:50;11.77;;;6.10;;
8419;SDS011;4247;48.550;8.822;2024-01-07T08:31:17;10.10;;;6.57;;
8419;SDS011;4247;48.550;8.822;2024-01-07T08:33:44;9.90;;;6.23;;
8419;SDS011;4247;48.550;8.822;2024-01-07T08:36:11;8.77;;;5.90;;
8419;SDS011;4247;48.550;8.822;2024-01-07T08:38:37;10.57;;;6.70;;
8419;SDS011;4247;48.550;8.822;2024-01-07T08:41:04;8.70;;;6.13;;
8419;SDS011;4247;48.550;8.822;2024-01-07T08:43:32;9.40;;;5.50;;
8419;SDS011;4247;48.550;8.822;2024-01-07T08:45:59;8.93;;;6.60;;
8419;SDS011;4247;48.550;8.822;2024-01-07T08:48:25;10.07;;;6.97;;
8419;SDS011;4247;48.550;8.822;2024-01-07T08:50:52;7.83;;;5.47;;
8419;SDS011;4247;48.550;8.822;2024-01-07T08:53:19;9.10;;;5.50;;
8419;SDS011;4247;48.550;8.822;2024-01-07T08:55:47;6.43;;;4.73;;
8419;SDS011;4247;48.550;8.822;2024-01-07T08:58:15;5.33;;;4.47;;
8419;SDS011;4247;48.550;8.822;2024-01-07T09:00:44;8.23;;;5.53;;
8419;SDS011;4247;48.550;8.822;2024-01-07T09:03:10;5.43;;;4.73;;
8419;SDS011;4247;48.550;8.822;2024-01-07T09:05:37;7.20;;;5.63;;
8419;SDS011;4247;48.550;8.822;2024-01-07T09:08:04;5.43;;;4.47;;
8419;SDS011;4247;48.550;8.822;2024-01-07T09:10:32;7.13;;;5.00;;
8419;SDS011;4247;48.550;8.822;2024-01-07T09:12:58;7.83;;;5.63;;
8419;SDS011;4247;48.550;8.822;2024-01-07T09:15:25;7.17;;;5.37;;
8419;SDS011;4247;48.550;8.822;2024-01-07T09:17:53;5.87;;;4.70;;
8419;SDS011;4247;48.550;8.822;2024-01-07T09:20:20;8.27;;;5.43;;
8419;SDS011;4247;48.550;8.822;2024-01-07T09:22:46;7.43;;;5.30;;
8419;SDS011;4247;48.550;8.822;2024-01-07T09:25:13;9.80;;;5.10;;
8419;SDS011;4247;48.550;8.822;2024-01-07T09:27:40;7.37;;;5.13;;
8419;SDS011;4247;48.550;8.822;2024-01-07T09:30:08;6.83;;;4.93;;
8419;SDS011;4247;48.550;8.822;2024-01-07T09:32:39;8.17;;;3.77;;
8419;SDS011;4247;48.550;8.822;2024-01-07T09:35:07;7.00;;;4.73;;
8419;SDS011;4247;48.550;8.822;2024-01-07T09:37:34;11.70;;;5.07;;
8419;SDS011;4247;48.550;8.822;2024-01-07T09:40:01;4.90;;;4.30;;
8419;SDS011;4247;48.550;8.822;2024-01-07T09:42:30;5.23;;;4.10;;
8419;SDS011;4247;48.550;8.822;2024-01-07T09:44:56;5.33;;;3.93;;
8419;SDS011;4247;48.550;8.822;2024-01-07T09:47:26;5.73;;;3.73;;
8419;SDS011;4247;48.550;8.822;2024-01-07T09:49:53;5.67;;;4.20;;
8419;SDS011;4247;48.550;8.822;2024-01-07T09:52:21;6.17;;;4.13;;
8419;SDS011;4247;48.550;8.822;2024-01-07T09:54:50;5.53;;;3.97;;
8419;SDS011;4247;48.550;8.822;2024-01-07T09:57:18;6.87;;;4.07;;
8419;SDS011;4247;48.550;8.822;2024-01-07T09:59:45;7.60;;;4.10;;
8419;SDS011;4247;48.550;8.822;2024-01-07T10:02:12;6.30;;;4.30;;
8419;SDS011;4247;48.550;8.822;2024-01-07T10:04:41;5.47;;;3.83;;
8419;SDS011;4247;48.550;8.822;2024-01-07T10:07:08;4.10;;;3.07;;
8419;SDS011;4247;48.550;8.822;2024-01-07T10:09:36;4.70;;;3.53;;
8419;SDS011;4247;48.550;8.822;2024-01-07T10:12:02;8.50;;;4.63;;
8419;SDS011;4247;48.550;8.822;2024-01-07T10:14:29;4.30;;;3.90;;
8419;SDS011;4247;48.550;8.822;2024-01-07T10:16:56;4.93;;;4.33;;
8419;SDS011;4247;48.550;8.822;2024-01-07T10:19:23;8.20;;;4.40;;
8419;SDS011;4247;48.550;8.822;2024-01-07T10:22:00;5.53;;;4.93;;
8419;SDS011;4247;48.550;8.822;2024-01-07T10:24:31;7.03;;;4.27;;
8419;SDS011;4247;48.550;8.822;2024-01-07T10:27:06;7.93;;;4.77;;
8419;SDS011;4247;48.550;8.822;2024-01-07T10:29:34;7.83;;;4.60;;
8419;SDS011;4247;48.550;8.822;2024-01-07T10:32:01;7.17;;;5.07;;
8419;SDS011;4247;48.550;8.822;2024-01-07T10:34:30;6.70;;;5.00;;
8419;SDS011;4247;48.550;8.822;2024-01-07T10:36:58;10.13;;;4.63;;
8419;SDS011;4247;48.550;8.822;2024-01-07T10:39:25;7.20;;;4.47;;
8419;SDS011;4247;48.550;8.822;2024-01-07T10:41:54;7.63;;;4.33;;
8419;SDS011;4247;48.550;8.822;2024-01-07T10:44:22;13.33;;;4.73;;
8419;SDS011;4247;48.550;8.822;2024-01-07T10:46:51;6.93;;;4.50;;
8419;SDS011;4247;48.550;8.822;2024-01-07T10:49:20;5.77;;;4.27;;
8419;SDS011;4247;48.550;8.822;2024-01-07T10:51:50;6.87;;;4.33;;
8419;SDS011;4247;48.550;8.822;2024-01-07T10:54:23;5.97;;;4.43;;
8419;SDS011;4247;48.550;8.822;2024-01-07T10:56:58;8.43;;;5.10;;
8419;SDS011;4247;48.550;8.822;2024-01-07T10:59:26;5.37;;;4.47;;
8419;SDS011;4247;48.550;8.822;2024-01-07T11:01:53;7.20;;;4.60;;
8419;SDS011;4247;48.550;8.822;2024-01-07T11:04:20;5.87;;;4.80;;
8419;SDS011;4247;48.550;8.822;2024-01-07T11:06:54;8.73;;;5.27;;
8419;SDS011;4247;48.550;8.822;2024-01-07T11:09:26;8.97;;;4.83;;
8419;SDS011;4247;48.550;8.822;2024-01-07T11:11:59;6.90;;;5.00;;
8419;SDS011;4247;48.550;8.822;2024-01-07T11:14:36;7.07;;;4.60;;
8419;SDS011;4247;48.550;8.822;2024-01-07T11:17:04;9.23;;;4.87;;
8419;SDS011;4247;48.550;8.822;2024-01-07T11:19:32;5.20;;;4.63;;
8419;SDS011;4247;48.550;8.822;2024-01-07T11:22:20;5.80;;;3.93;;
8419;SDS011;4247;48.550;8.822;2024-01-07T11:24:49;7.20;;;5.47;;
8419;SDS011;4247;48.550;8.822;2024-01-07T11:27:18;7.77;;;5.53;;
8419;SDS011;4247;48.550;8.822;2024-01-07T11:29:52;6.20;;;4.90;;
8419;SDS011;4247;48.550;8.822;2024-01-07T11:32:21;5.50;;;4.27;;
8419;SDS011;4247;48.550;8.822;2024-01-07T11:34:48;5.93;;;4.57;;
8419;SDS011;4247;48.550;8.822;2024-01-07T11:37:18;5.60;;;4.20;;
8419;SDS011;4247;48.550;8.822;2024-01-07T11:39:45;4.53;;;3.93;;
8419;SDS011;4247;48.550;8.822;2024-01-07T11:42:13;5.83;;;2.60;;
8419;SDS011;4247;48.550;8.822;2024-01-07T11:44:46;5.00;;;3.17;;
8419;SDS011;4247;48.550;8.822;2024-01-07T11:47:14;5.83;;;3.20;;
8419;SDS011;4247;48.550;8.822;2024-01-07T11:49:41;4.77;;;3.10;;
8419;SDS011;4247;48.550;8.822;2024-01-07T11:52:08;4.73;;;3.57;;
8419;SDS011;4247;48.550;8.822;2024-01-07T11:54:35;4.13;;;2.80;;
8419;SDS011;4247;48.550;8.822;2024-01-07T11:57:03;4.93;;;3.07;;
8419;SDS011;4247;48.550;8.822;2024-01-07T11:59:30;2.37;;;2.17;;
8419;SDS011;4247;48.550;8.822;2024-01-07T12:01:58;5.17;;;3.20;;
8419;SDS011;4247;48.550;8.822;2024-01-07T12:04:26;4.33;;;3.60;;
8419;SDS011;4247;48.550;8.822;2024-01-07T12:06:53;4.33;;;2.67;;
8419;SDS011;4247;48.550;8.822;2024-01-07T12:09:20;4.40;;;3.10;;
8419;SDS011;4247;48.550;8.822;2024-01-07T12:11:46;3.33;;;2.83;;
8419;SDS011;4247;48.550;8.822;2024-01-07T12:14:13;3.60;;;2.43;;
8419;SDS011;4247;48.550;8.822;2024-01-07T12:16:40;2.90;;;2.70;;
8419;SDS011;4247;48.550;8.822;2024-01-07T12:19:09;5.07;;;3.10;;
8419;SDS011;4247;48.550;8.822;2024-01-07T12:21:36;3.57;;;2.53;;
8419;SDS011;4247;48.550;8.822;2024-01-07T12:24:03;3.60;;;2.90;;
8419;SDS011;4247;48.550;8.822;2024-01-07T12:26:30;4.67;;;3.30;;
8419;SDS011;4247;48.550;8.822;2024-01-07T12:28:58;3.20;;;3.00;;
8419;SDS011;4247;48.550;8.822;2024-01-07T12:31:28;4.63;;;3.07;;
8419;SDS011;4247;48.550;8.822;2024-01-07T12:33:56;5.33;;;3.70;;
8419;SDS011;4247;48.550;8.822;2024-01-07T12:36:24;4.60;;;3.97;;
8419;SDS011;4247;48.550;8.822;2024-01-07T12:38:52;6.83;;;3.90;;
8419;SDS011;4247;48.550;8.822;2024-01-07T12:41:20;4.57;;;4.07;;
8419;SDS011;4247;48.550;8.822;2024-01-07T12:43:47;4.63;;;3.00;;
8419;SDS011;4247;48.550;8.822;2024-01-07T12:46:14;3.30;;;2.87;;
8419;SDS011;4247;48.550;8.822;2024-01-07T12:48:41;4.10;;;3.20;;
8419;SDS011;4247;48.550;8.822;2024-01-07T12:51:08;4.10;;;3.70;;
8419;SDS011;4247;48.550;8.822;2024-01-07T12:53:36;4.57;;;3.90;;
8419;SDS011;4247;48.550;8.822;2024-01-07T12:56:03;4.77;;;3.87;;
8419;SDS011;4247;48.550;8.822;2024-01-07T12:58:30;6.17;;;4.47;;
8419;SDS011;4247;48.550;8.822;2024-01-07T13:00:57;13.67;;;7.37;;
8419;SDS011;4247;48.550;8.822;2024-01-07T13:03:24;11.13;;;6.47;;
8419;SDS011;4247;48.550;8.822;2024-01-07T13:05:51;8.77;;;5.67;;
8419;SDS011;4247;48.550;8.822;2024-01-07T13:08:18;7.33;;;4.67;;
8419;SDS011;4247;48.550;8.822;2024-01-07T13:10:48;8.37;;;5.33;;
8419;SDS011;4247;48.550;8.822;2024-01-07T13:13:15;11.27;;;5.67;;
8419;SDS011;4247;48.550;8.822;2024-01-07T13:15:42;9.13;;;6.40;;
8419;SDS011;4247;48.550;8.822;2024-01-07T13:18:09;11.30;;;7.03;;
8419;SDS011;4247;48.550;8.822;2024-01-07T13:20:38;6.20;;;4.70;;
8419;SDS011;4247;48.550;8.822;2024-01-07T13:23:05;6.90;;;4.80;;
8419;SDS011;4247;48.550;8.822;2024-01-07T13:25:32;7.37;;;6.20;;
8419;SDS011;4247;48.550;8.822;2024-01-07T13:28:00;7.27;;;4.87;;
8419;SDS011;4247;48.550;8.822;2024-01-07T13:30:27;11.13;;;6.97;;
8419;SDS011;4247;48.550;8.822;2024-01-07T13:32:53;7.77;;;5.63;;
8419;SDS011;4247;48.550;8.822;2024-01-07T13:35:22;8.40;;;5.13;;
8419;SDS011;4247;48.550;8.822;2024-01-07T13:37:48;5.73;;;4.60;;
8419;SDS011;4247;48.550;8.822;2024-01-07T13:40:17;7.60;;;5.73;;
8419;SDS011;4247;48.550;8.822;2024-01-07T13:42:44;9.50;;;5.63;;
8419;SDS011;4247;48.550;8.822;2024-01-07T13:45:12;7.67;;;4.60;;
8419;SDS011;4247;48.550;8.822;2024-01-07T13:47:39;6.23;;;4.70;;
8419;SDS011;4247;48.550;8.822;2024-01-07T13:50:06;9.83;;;5.50;;
8419;SDS011;4247;48.550;8.822;2024-01-07T13:52:34;6.90;;;4.63;;
8419;SDS011;4247;48.550;8.822;2024-01-07T13:55:01;6.77;;;4.17;;
8419;SDS011;4247;48.550;8.822;2024-01-07T13:57:28;8.30;;;5.20;;
8419;SDS011;4247;48.550;8.822;2024-01-07T13:59:55;9.80;;;5.47;;
8419;SDS011;4247;48.550;8.822;2024-01-07T14:02:23;6.60;;;4.80;;
8419;SDS011;4247;48.550;8.822;2024-01-07T14:04:50;10.10;;;5.93;;
8419;SDS011;4247;48.550;8.822;2024-01-07T14:07:17;5.90;;;4.40;;
8419;SDS011;4247;48.550;8.822;2024-01-07T14:09:43;4.57;;;4.10;;
8419;SDS011;4247;48.550;8.822;2024-01-07T14:12:11;5.43;;;4.07;;
8419;SDS011;4247;48.550;8.822;2024-01-07T14:14:38;4.80;;;3.97;;
8419;SDS011;4247;48.550;8.822;2024-01-07T14:17:04;6.07;;;4.87;;
8419;SDS011;4247;48.550;8.822;2024-01-07T14:19:33;6.10;;;5.27;;
8419;SDS011;4247;48.550;8.822;2024-01-07T14:21:59;5.63;;;4.83;;
8419;SDS011;4247;48.550;8.822;2024-01-07T14:24:26;6.43;;;4.67;;
8419;SDS011;4247;48.550;8.822;2024-01-07T14:26:53;8.13;;;4.97;;
8419;SDS011;4247;48.550;8.822;2024-01-07T14:29:20;6.83;;;5.40;;
8419;SDS011;4247;48.550;8.822;2024-01-07T14:31:46;5.50;;;5.00;;
8419;SDS011;4247;48.550;8.822;2024-01-07T14:34:14;5.60;;;4.83;;
8419;SDS011;4247;48.550;8.822;2024-01-07T14:36:42;8.53;;;5.20;;
8419;SDS011;4247;48.550;8.822;2024-01-07T14:39:09;10.07;;;5.90;;
8419;SDS011;4247;48.550;8.822;2024-01-07T14:41:38;5.87;;;4.30;;
8419;SDS011;4247;48.550;8.822;2024-01-07T14:44:05;8.57;;;6.50;;
8419;SDS011;4247;48.550;8.822;2024-01-07T14:46:31;7.67;;;4.80;;
8419;SDS011;4247;48.550;8.822;2024-01-07T14:48:58;8.97;;;5.20;;
8419;SDS011;4247;48.550;8.822;2024-01-07T14:51:25;8.20;;;5.70;;
8419;SDS011;4247;48.550;8.822;2024-01-07T14:53:53;7.27;;;5.33;;
8419;SDS011;4247;48.550;8.822;2024-01-07T14:56:20;8.70;;;4.77;;
8419;SDS011;4247;48.550;8.822;2024-01-07T14:58:47;7.77;;;5.23;;
8419;SDS011;4247;48.550;8.822;2024-01-07T15:01:15;6.73;;;5.10;;
8419;SDS011;4247;48.550;8.822;2024-01-07T15:03:43;6.43;;;5.80;;
8419;SDS011;4247;48.550;8.822;2024-01-07T15:06:10;7.40;;;5.53;;
8419;SDS011;4247;48.550;8.822;2024-01-07T15:08:40;9.77;;;6.47;;
8419;SDS011;4247;48.550;8.822;2024-01-07T15:11:08;9.53;;;6.53;;
8419;SDS011;4247;48.550;8.822;2024-01-07T15:13:35;8.50;;;6.40;;